Terminal Aerodrome Forecast
Issued by NWS

Home | Current Version | Previous Version | Text Only | Print | Product List | Glossary Off
Versions: 1 2 3 4 5 6 7 8 9 10 11 12 13 14 15

000
FTUS43 KBIS 271136
TAFMOT
TAF
KMOT 271136Z 2712/2812 23005KT P6SM FEW100 SCT250
     FM271700 09008KT P6SM SCT110
     FM272000 11009KT P6SM VCSH BKN100
     FM280600 09007KT 4SM -SHRA VCTS BKN035 OVC050CB=

USA.gov is the U.S. government's official web portal to all federal, state and local government web resources and services.